sensor_id;sensor_type;location;lat;lon;timestamp;P1;durP1;ratioP1;P2;durP2;ratioP2
25950;SDS011;13748;52.240;6.002;2022-12-18T00:01:33;109.70;;;35.83;;
25950;SDS011;13748;52.240;6.002;2022-12-18T00:04:02;104.40;;;36.90;;
25950;SDS011;13748;52.240;6.002;2022-12-18T00:06:34;101.67;;;35.40;;
25950;SDS011;13748;52.240;6.002;2022-12-18T00:09:02;105.77;;;33.80;;
25950;SDS011;13748;52.240;6.002;2022-12-18T00:11:29;92.00;;;33.87;;
25950;SDS011;13748;52.240;6.002;2022-12-18T00:13:57;96.67;;;33.57;;
25950;SDS011;13748;52.240;6.002;2022-12-18T00:16:26;97.13;;;36.67;;
25950;SDS011;13748;52.240;6.002;2022-12-18T00:18:56;102.20;;;35.17;;
25950;SDS011;13748;52.240;6.002;2022-12-18T00:21:25;93.83;;;34.63;;
25950;SDS011;13748;52.240;6.002;2022-12-18T00:23:53;95.93;;;34.90;;
25950;SDS011;13748;52.240;6.002;2022-12-18T00:26:22;106.77;;;35.23;;
25950;SDS011;13748;52.240;6.002;2022-12-18T00:28:50;96.77;;;33.57;;
25950;SDS011;13748;52.240;6.002;2022-12-18T00:31:19;111.13;;;38.27;;
25950;SDS011;13748;52.240;6.002;2022-12-18T00:33:48;113.53;;;35.17;;
25950;SDS011;13748;52.240;6.002;2022-12-18T00:36:20;117.30;;;35.83;;
25950;SDS011;13748;52.240;6.002;2022-12-18T00:38:50;106.07;;;37.60;;
25950;SDS011;13748;52.240;6.002;2022-12-18T00:41:17;111.73;;;35.87;;
25950;SDS011;13748;52.240;6.002;2022-12-18T00:44:05;114.37;;;35.97;;
25950;SDS011;13748;52.240;6.002;2022-12-18T00:46:33;104.17;;;35.83;;
25950;SDS011;13748;52.240;6.002;2022-12-18T00:49:00;131.80;;;37.87;;
25950;SDS011;13748;52.240;6.002;2022-12-18T00:51:27;109.00;;;35.03;;
25950;SDS011;13748;52.240;6.002;2022-12-18T00:53:53;123.57;;;35.80;;
25950;SDS011;13748;52.240;6.002;2022-12-18T00:56:23;105.07;;;35.83;;
25950;SDS011;13748;52.240;6.002;2022-12-18T00:58:50;103.33;;;34.20;;
25950;SDS011;13748;52.240;6.002;2022-12-18T01:01:17;109.37;;;34.60;;
25950;SDS011;13748;52.240;6.002;2022-12-18T01:03:44;113.50;;;36.77;;
25950;SDS011;13748;52.240;6.002;2022-12-18T01:06:13;99.80;;;34.07;;
25950;SDS011;13748;52.240;6.002;2022-12-18T01:08:41;94.10;;;34.17;;
25950;SDS011;13748;52.240;6.002;2022-12-18T01:11:11;95.70;;;34.77;;
25950;SDS011;13748;52.240;6.002;2022-12-18T01:13:40;95.03;;;32.53;;
25950;SDS011;13748;52.240;6.002;2022-12-18T01:16:07;99.53;;;35.40;;
25950;SDS011;13748;52.240;6.002;2022-12-18T01:18:35;106.37;;;34.23;;
25950;SDS011;13748;52.240;6.002;2022-12-18T01:21:05;98.97;;;34.47;;
25950;SDS011;13748;52.240;6.002;2022-12-18T01:23:40;109.73;;;34.00;;
25950;SDS011;13748;52.240;6.002;2022-12-18T01:26:08;103.87;;;33.67;;
25950;SDS011;13748;52.240;6.002;2022-12-18T01:28:40;99.00;;;32.87;;
25950;SDS011;13748;52.240;6.002;2022-12-18T01:31:49;90.90;;;34.30;;
25950;SDS011;13748;52.240;6.002;2022-12-18T01:34:00;92.07;;;33.47;;
25950;SDS011;13748;52.240;6.002;2022-12-18T01:36:28;89.70;;;32.23;;
25950;SDS011;13748;52.240;6.002;2022-12-18T01:39:04;89.30;;;31.33;;
25950;SDS011;13748;52.240;6.002;2022-12-18T01:41:33;96.07;;;32.77;;
25950;SDS011;13748;52.240;6.002;2022-12-18T01:47:28;77.07;;;31.37;;
25950;SDS011;13748;52.240;6.002;2022-12-18T01:49:57;96.50;;;32.27;;
25950;SDS011;13748;52.240;6.002;2022-12-18T01:52:27;88.43;;;31.97;;
25950;SDS011;13748;52.240;6.002;2022-12-18T01:54:57;97.17;;;32.50;;
25950;SDS011;13748;52.240;6.002;2022-12-18T01:57:24;87.87;;;32.70;;
25950;SDS011;13748;52.240;6.002;2022-12-18T01:59:52;86.67;;;30.50;;
25950;SDS011;13748;52.240;6.002;2022-12-18T02:02:22;93.90;;;30.47;;
25950;SDS011;13748;52.240;6.002;2022-12-18T02:04:49;91.33;;;32.47;;
25950;SDS011;13748;52.240;6.002;2022-12-18T02:10:09;93.93;;;31.63;;
25950;SDS011;13748;52.240;6.002;2022-12-18T02:15:36;86.53;;;32.60;;
25950;SDS011;13748;52.240;6.002;2022-12-18T02:18:14;96.40;;;34.13;;
25950;SDS011;13748;52.240;6.002;2022-12-18T02:21:25;93.07;;;32.77;;
25950;SDS011;13748;52.240;6.002;2022-12-18T02:27:03;84.80;;;32.80;;
25950;SDS011;13748;52.240;6.002;2022-12-18T02:29:34;97.10;;;32.63;;
25950;SDS011;13748;52.240;6.002;2022-12-18T02:32:02;92.07;;;32.20;;
25950;SDS011;13748;52.240;6.002;2022-12-18T02:34:32;87.60;;;31.57;;
25950;SDS011;13748;52.240;6.002;2022-12-18T02:37:04;91.10;;;30.27;;
25950;SDS011;13748;52.240;6.002;2022-12-18T02:39:35;95.80;;;33.07;;
25950;SDS011;13748;52.240;6.002;2022-12-18T02:42:04;85.67;;;33.13;;
25950;SDS011;13748;52.240;6.002;2022-12-18T02:44:34;81.40;;;30.47;;
25950;SDS011;13748;52.240;6.002;2022-12-18T02:47:09;82.60;;;31.53;;
25950;SDS011;13748;52.240;6.002;2022-12-18T02:55:17;88.20;;;33.17;;
25950;SDS011;13748;52.240;6.002;2022-12-18T02:57:55;81.87;;;31.03;;
25950;SDS011;13748;52.240;6.002;2022-12-18T03:00:37;87.73;;;32.43;;
25950;SDS011;13748;52.240;6.002;2022-12-18T03:05:44;81.27;;;31.57;;
25950;SDS011;13748;52.240;6.002;2022-12-18T03:08:18;88.53;;;31.73;;
25950;SDS011;13748;52.240;6.002;2022-12-18T03:10:55;83.77;;;31.00;;
25950;SDS011;13748;52.240;6.002;2022-12-18T03:13:36;93.60;;;31.83;;
25950;SDS011;13748;52.240;6.002;2022-12-18T03:16:07;88.17;;;31.53;;
25950;SDS011;13748;52.240;6.002;2022-12-18T03:18:38;84.97;;;32.53;;
25950;SDS011;13748;52.240;6.002;2022-12-18T03:21:06;94.27;;;32.63;;
25950;SDS011;13748;52.240;6.002;2022-12-18T03:23:36;75.20;;;29.13;;
25950;SDS011;13748;52.240;6.002;2022-12-18T03:26:11;86.00;;;31.27;;
25950;SDS011;13748;52.240;6.002;2022-12-18T03:28:54;90.63;;;31.10;;
25950;SDS011;13748;52.240;6.002;2022-12-18T03:31:25;87.10;;;31.63;;
25950;SDS011;13748;52.240;6.002;2022-12-18T03:33:56;88.30;;;29.90;;
25950;SDS011;13748;52.240;6.002;2022-12-18T03:36:25;89.10;;;32.00;;
25950;SDS011;13748;52.240;6.002;2022-12-18T03:38:52;89.10;;;30.93;;
25950;SDS011;13748;52.240;6.002;2022-12-18T03:41:28;92.07;;;30.47;;
25950;SDS011;13748;52.240;6.002;2022-12-18T03:44:14;78.97;;;30.93;;
25950;SDS011;13748;52.240;6.002;2022-12-18T03:47:06;96.30;;;30.97;;
25950;SDS011;13748;52.240;6.002;2022-12-18T03:49:59;81.07;;;30.60;;
25950;SDS011;13748;52.240;6.002;2022-12-18T03:52:37;82.83;;;29.87;;
25950;SDS011;13748;52.240;6.002;2022-12-18T03:55:08;94.27;;;32.10;;
25950;SDS011;13748;52.240;6.002;2022-12-18T03:57:36;77.93;;;31.40;;
25950;SDS011;13748;52.240;6.002;2022-12-18T04:00:09;79.50;;;29.87;;
25950;SDS011;13748;52.240;6.002;2022-12-18T04:02:43;86.90;;;29.73;;
25950;SDS011;13748;52.240;6.002;2022-12-18T04:05:15;84.70;;;30.07;;
25950;SDS011;13748;52.240;6.002;2022-12-18T04:07:42;89.77;;;31.17;;
25950;SDS011;13748;52.240;6.002;2022-12-18T04:10:11;74.60;;;28.90;;
25950;SDS011;13748;52.240;6.002;2022-12-18T04:12:40;87.30;;;32.73;;
25950;SDS011;13748;52.240;6.002;2022-12-18T04:15:07;91.40;;;31.87;;
25950;SDS011;13748;52.240;6.002;2022-12-18T04:17:34;87.93;;;30.40;;
25950;SDS011;13748;52.240;6.002;2022-12-18T04:20:01;88.63;;;31.80;;
25950;SDS011;13748;52.240;6.002;2022-12-18T04:22:28;79.63;;;31.07;;
25950;SDS011;13748;52.240;6.002;2022-12-18T04:24:55;79.40;;;31.87;;
25950;SDS011;13748;52.240;6.002;2022-12-18T04:27:22;95.13;;;31.20;;
25950;SDS011;13748;52.240;6.002;2022-12-18T04:29:48;85.00;;;29.67;;
25950;SDS011;13748;52.240;6.002;2022-12-18T04:32:15;92.33;;;30.97;;
25950;SDS011;13748;52.240;6.002;2022-12-18T04:34:42;87.80;;;30.60;;
25950;SDS011;13748;52.240;6.002;2022-12-18T04:37:08;85.83;;;30.40;;
25950;SDS011;13748;52.240;6.002;2022-12-18T04:39:35;75.80;;;30.17;;
25950;SDS011;13748;52.240;6.002;2022-12-18T04:42:02;79.10;;;28.53;;
25950;SDS011;13748;52.240;6.002;2022-12-18T04:44:28;73.93;;;29.27;;
25950;SDS011;13748;52.240;6.002;2022-12-18T04:46:55;81.27;;;28.83;;
25950;SDS011;13748;52.240;6.002;2022-12-18T04:49:22;75.27;;;30.00;;
25950;SDS011;13748;52.240;6.002;2022-12-18T04:51:48;86.57;;;29.67;;
25950;SDS011;13748;52.240;6.002;2022-12-18T04:54:15;71.03;;;29.30;;
25950;SDS011;13748;52.240;6.002;2022-12-18T04:56:45;75.30;;;28.97;;
25950;SDS011;13748;52.240;6.002;2022-12-18T04:59:12;75.47;;;29.03;;
25950;SDS011;13748;52.240;6.002;2022-12-18T05:01:39;70.13;;;26.47;;
25950;SDS011;13748;52.240;6.002;2022-12-18T05:04:06;66.80;;;26.33;;
25950;SDS011;13748;52.240;6.002;2022-12-18T05:06:33;77.83;;;28.83;;
25950;SDS011;13748;52.240;6.002;2022-12-18T05:08:59;72.07;;;27.73;;
25950;SDS011;13748;52.240;6.002;2022-12-18T05:11:26;77.33;;;28.90;;
25950;SDS011;13748;52.240;6.002;2022-12-18T05:13:56;79.27;;;28.73;;
25950;SDS011;13748;52.240;6.002;2022-12-18T05:16:22;76.83;;;27.70;;
25950;SDS011;13748;52.240;6.002;2022-12-18T05:18:49;70.57;;;26.77;;
25950;SDS011;13748;52.240;6.002;2022-12-18T05:21:16;69.23;;;28.60;;
25950;SDS011;13748;52.240;6.002;2022-12-18T05:23:43;63.10;;;26.03;;
25950;SDS011;13748;52.240;6.002;2022-12-18T05:26:10;69.63;;;28.20;;
25950;SDS011;13748;52.240;6.002;2022-12-18T05:28:41;60.73;;;26.80;;
25950;SDS011;13748;52.240;6.002;2022-12-18T05:31:11;62.23;;;25.70;;
25950;SDS011;13748;52.240;6.002;2022-12-18T05:33:38;69.50;;;25.30;;
25950;SDS011;13748;52.240;6.002;2022-12-18T05:36:06;62.00;;;24.10;;
25950;SDS011;13748;52.240;6.002;2022-12-18T05:38:35;68.53;;;27.97;;
25950;SDS011;13748;52.240;6.002;2022-12-18T05:41:03;62.13;;;25.63;;
25950;SDS011;13748;52.240;6.002;2022-12-18T05:43:31;65.03;;;25.63;;
25950;SDS011;13748;52.240;6.002;2022-12-18T05:46:04;68.37;;;25.83;;
25950;SDS011;13748;52.240;6.002;2022-12-18T05:48:37;51.87;;;25.17;;
25950;SDS011;13748;52.240;6.002;2022-12-18T05:51:05;64.53;;;25.47;;
25950;SDS011;13748;52.240;6.002;2022-12-18T05:53:33;67.90;;;26.50;;
25950;SDS011;13748;52.240;6.002;2022-12-18T05:56:04;59.77;;;25.67;;
25950;SDS011;13748;52.240;6.002;2022-12-18T05:58:33;58.97;;;25.63;;
25950;SDS011;13748;52.240;6.002;2022-12-18T06:01:08;64.30;;;25.67;;
25950;SDS011;13748;52.240;6.002;2022-12-18T06:03:43;63.03;;;25.17;;
25950;SDS011;13748;52.240;6.002;2022-12-18T06:06:17;67.80;;;26.67;;
25950;SDS011;13748;52.240;6.002;2022-12-18T06:08:45;60.30;;;24.37;;
25950;SDS011;13748;52.240;6.002;2022-12-18T06:11:12;64.53;;;25.97;;
25950;SDS011;13748;52.240;6.002;2022-12-18T06:13:42;58.27;;;25.03;;
25950;SDS011;13748;52.240;6.002;2022-12-18T06:16:12;62.13;;;25.43;;
25950;SDS011;13748;52.240;6.002;2022-12-18T06:18:39;61.80;;;25.00;;
25950;SDS011;13748;52.240;6.002;2022-12-18T06:21:06;66.63;;;25.70;;
25950;SDS011;13748;52.240;6.002;2022-12-18T06:23:33;56.73;;;25.80;;
25950;SDS011;13748;52.240;6.002;2022-12-18T06:26:03;62.93;;;24.87;;
25950;SDS011;13748;52.240;6.002;2022-12-18T06:28:35;55.27;;;23.23;;
25950;SDS011;13748;52.240;6.002;2022-12-18T06:31:02;56.97;;;25.50;;
25950;SDS011;13748;52.240;6.002;2022-12-18T06:33:30;59.07;;;25.97;;
25950;SDS011;13748;52.240;6.002;2022-12-18T06:36:02;65.13;;;25.90;;
25950;SDS011;13748;52.240;6.002;2022-12-18T06:38:31;60.93;;;26.07;;
25950;SDS011;13748;52.240;6.002;2022-12-18T06:40:58;60.33;;;25.43;;
25950;SDS011;13748;52.240;6.002;2022-12-18T06:43:25;61.73;;;25.97;;
25950;SDS011;13748;52.240;6.002;2022-12-18T06:45:57;61.10;;;25.90;;
25950;SDS011;13748;52.240;6.002;2022-12-18T06:48:27;57.13;;;25.40;;
25950;SDS011;13748;52.240;6.002;2022-12-18T06:50:54;52.50;;;24.33;;
25950;SDS011;13748;52.240;6.002;2022-12-18T06:53:20;52.87;;;24.20;;
25950;SDS011;13748;52.240;6.002;2022-12-18T06:55:47;65.53;;;25.37;;
25950;SDS011;13748;52.240;6.002;2022-12-18T06:58:14;62.23;;;25.93;;
25950;SDS011;13748;52.240;6.002;2022-12-18T07:00:41;54.93;;;25.40;;
25950;SDS011;13748;52.240;6.002;2022-12-18T07:03:08;57.33;;;24.73;;
25950;SDS011;13748;52.240;6.002;2022-12-18T07:05:39;59.37;;;25.13;;
25950;SDS011;13748;52.240;6.002;2022-12-18T07:08:06;61.63;;;25.27;;
25950;SDS011;13748;52.240;6.002;2022-12-18T07:10:39;51.77;;;24.40;;
25950;SDS011;13748;52.240;6.002;2022-12-18T07:13:13;57.27;;;24.70;;
25950;SDS011;13748;52.240;6.002;2022-12-18T07:15:40;54.07;;;23.70;;
25950;SDS011;13748;52.240;6.002;2022-12-18T07:18:08;59.13;;;24.60;;
25950;SDS011;13748;52.240;6.002;2022-12-18T07:20:35;55.20;;;23.13;;
25950;SDS011;13748;52.240;6.002;2022-12-18T07:23:02;47.23;;;21.70;;
25950;SDS011;13748;52.240;6.002;2022-12-18T07:25:29;49.77;;;24.93;;
25950;SDS011;13748;52.240;6.002;2022-12-18T07:27:59;56.20;;;23.53;;
25950;SDS011;13748;52.240;6.002;2022-12-18T07:30:26;56.90;;;23.93;;
25950;SDS011;13748;52.240;6.002;2022-12-18T07:32:53;50.90;;;23.93;;
25950;SDS011;13748;52.240;6.002;2022-12-18T07:35:20;53.90;;;23.57;;
25950;SDS011;13748;52.240;6.002;2022-12-18T07:37:50;47.23;;;22.83;;
25950;SDS011;13748;52.240;6.002;2022-12-18T07:40:17;51.83;;;22.93;;
25950;SDS011;13748;52.240;6.002;2022-12-18T07:42:43;50.07;;;23.33;;
25950;SDS011;13748;52.240;6.002;2022-12-18T07:45:10;48.63;;;21.40;;
25950;SDS011;13748;52.240;6.002;2022-12-18T07:47:37;53.80;;;23.27;;
25950;SDS011;13748;52.240;6.002;2022-12-18T07:50:04;49.30;;;21.47;;
25950;SDS011;13748;52.240;6.002;2022-12-18T07:52:31;50.57;;;22.80;;
25950;SDS011;13748;52.240;6.002;2022-12-18T07:54:58;46.60;;;21.97;;
25950;SDS011;13748;52.240;6.002;2022-12-18T07:57:25;51.67;;;22.80;;
25950;SDS011;13748;52.240;6.002;2022-12-18T08:00:11;45.83;;;22.93;;
25950;SDS011;13748;52.240;6.002;2022-12-18T08:02:39;43.23;;;22.07;;
25950;SDS011;13748;52.240;6.002;2022-12-18T08:05:07;55.87;;;23.33;;
25950;SDS011;13748;52.240;6.002;2022-12-18T08:07:34;48.63;;;22.50;;
25950;SDS011;13748;52.240;6.002;2022-12-18T08:10:01;52.80;;;23.57;;
25950;SDS011;13748;52.240;6.002;2022-12-18T08:12:29;50.00;;;22.87;;
25950;SDS011;13748;52.240;6.002;2022-12-18T08:14:55;48.03;;;22.23;;
25950;SDS011;13748;52.240;6.002;2022-12-18T08:17:22;49.77;;;23.50;;
25950;SDS011;13748;52.240;6.002;2022-12-18T08:19:49;43.80;;;21.67;;
25950;SDS011;13748;52.240;6.002;2022-12-18T08:22:16;51.53;;;24.37;;
25950;SDS011;13748;52.240;6.002;2022-12-18T08:24:42;50.80;;;22.63;;
25950;SDS011;13748;52.240;6.002;2022-12-18T08:27:09;49.80;;;23.00;;
25950;SDS011;13748;52.240;6.002;2022-12-18T08:29:54;51.53;;;21.70;;
25950;SDS011;13748;52.240;6.002;2022-12-18T08:32:21;45.63;;;21.80;;
25950;SDS011;13748;52.240;6.002;2022-12-18T08:34:48;47.30;;;21.50;;
25950;SDS011;13748;52.240;6.002;2022-12-18T08:37:15;49.63;;;22.20;;
25950;SDS011;13748;52.240;6.002;2022-12-18T08:39:42;51.03;;;22.67;;
25950;SDS011;13748;52.240;6.002;2022-12-18T08:42:08;47.80;;;21.53;;
25950;SDS011;13748;52.240;6.002;2022-12-18T08:44:54;52.30;;;21.97;;
25950;SDS011;13748;52.240;6.002;2022-12-18T08:47:21;54.57;;;22.30;;
25950;SDS011;13748;52.240;6.002;2022-12-18T08:49:48;58.87;;;23.23;;
25950;SDS011;13748;52.240;6.002;2022-12-18T08:52:14;46.03;;;22.00;;
25950;SDS011;13748;52.240;6.002;2022-12-18T08:54:41;37.60;;;19.37;;
25950;SDS011;13748;52.240;6.002;2022-12-18T08:57:08;47.90;;;20.57;;
25950;SDS011;13748;52.240;6.002;2022-12-18T08:59:34;44.93;;;21.47;;
25950;SDS011;13748;52.240;6.002;2022-12-18T09:02:01;43.37;;;19.80;;
25950;SDS011;13748;52.240;6.002;2022-12-18T09:04:28;45.10;;;21.27;;
25950;SDS011;13748;52.240;6.002;2022-12-18T09:06:55;35.03;;;19.00;;
25950;SDS011;13748;52.240;6.002;2022-12-18T09:09:22;38.57;;;19.60;;
25950;SDS011;13748;52.240;6.002;2022-12-18T09:11:48;44.13;;;20.73;;
25950;SDS011;13748;52.240;6.002;2022-12-18T09:14:15;39.50;;;17.80;;
25950;SDS011;13748;52.240;6.002;2022-12-18T09:16:42;39.37;;;18.00;;
25950;SDS011;13748;52.240;6.002;2022-12-18T09:19:09;38.37;;;19.67;;
25950;SDS011;13748;52.240;6.002;2022-12-18T09:21:36;36.93;;;18.80;;
25950;SDS011;13748;52.240;6.002;2022-12-18T09:24:13;41.10;;;19.43;;
25950;SDS011;13748;52.240;6.002;2022-12-18T09:26:41;39.00;;;19.53;;
25950;SDS011;13748;52.240;6.002;2022-12-18T09:29:11;34.70;;;16.40;;
25950;SDS011;13748;52.240;6.002;2022-12-18T09:31:38;41.37;;;19.70;;
25950;SDS011;13748;52.240;6.002;2022-12-18T09:34:12;35.53;;;18.77;;
25950;SDS011;13748;52.240;6.002;2022-12-18T09:36:39;36.53;;;17.00;;
25950;SDS011;13748;52.240;6.002;2022-12-18T09:39:06;35.63;;;17.13;;
25950;SDS011;13748;52.240;6.002;2022-12-18T09:41:39;34.90;;;17.03;;
25950;SDS011;13748;52.240;6.002;2022-12-18T09:46:46;35.90;;;17.80;;
25950;SDS011;13748;52.240;6.002;2022-12-18T09:49:18;33.10;;;17.30;;
25950;SDS011;13748;52.240;6.002;2022-12-18T09:51:52;33.83;;;16.30;;
25950;SDS011;13748;52.240;6.002;2022-12-18T09:54:48;32.40;;;17.57;;
25950;SDS011;13748;52.240;6.002;2022-12-18T09:57:21;31.77;;;16.07;;
25950;SDS011;13748;52.240;6.002;2022-12-18T09:59:56;32.93;;;16.50;;
25950;SDS011;13748;52.240;6.002;2022-12-18T10:02:30;27.27;;;15.23;;
25950;SDS011;13748;52.240;6.002;2022-12-18T10:07:38;29.13;;;15.23;;
25950;SDS011;13748;52.240;6.002;2022-12-18T10:10:19;27.17;;;15.03;;
25950;SDS011;13748;52.240;6.002;2022-12-18T10:12:54;25.73;;;14.87;;
25950;SDS011;13748;52.240;6.002;2022-12-18T10:20:54;27.73;;;13.90;;
25950;SDS011;13748;52.240;6.002;2022-12-18T10:26:43;25.67;;;13.90;;
25950;SDS011;13748;52.240;6.002;2022-12-18T10:29:11;28.40;;;13.07;;
25950;SDS011;13748;52.240;6.002;2022-12-18T10:31:39;26.90;;;13.23;;
25950;SDS011;13748;52.240;6.002;2022-12-18T10:34:12;26.67;;;13.20;;
25950;SDS011;13748;52.240;6.002;2022-12-18T10:36:40;23.53;;;13.57;;
25950;SDS011;13748;52.240;6.002;2022-12-18T10:39:15;23.67;;;12.60;;
25950;SDS011;13748;52.240;6.002;2022-12-18T10:41:45;23.23;;;13.10;;
25950;SDS011;13748;52.240;6.002;2022-12-18T10:44:15;23.20;;;12.93;;
25950;SDS011;13748;52.240;6.002;2022-12-18T10:46:48;21.97;;;12.47;;
25950;SDS011;13748;52.240;6.002;2022-12-18T10:49:39;27.37;;;13.27;;
25950;SDS011;13748;52.240;6.002;2022-12-18T10:52:14;20.70;;;11.97;;
25950;SDS011;13748;52.240;6.002;2022-12-18T10:54:52;23.83;;;13.07;;
25950;SDS011;13748;52.240;6.002;2022-12-18T10:57:35;23.73;;;12.23;;
25950;SDS011;13748;52.240;6.002;2022-12-18T11:00:24;19.33;;;11.13;;
25950;SDS011;13748;52.240;6.002;2022-12-18T11:02:54;18.90;;;10.97;;
25950;SDS011;13748;52.240;6.002;2022-12-18T11:05:30;23.23;;;11.70;;
25950;SDS011;13748;52.240;6.002;2022-12-18T11:07:59;21.97;;;11.87;;
25950;SDS011;13748;52.240;6.002;2022-12-18T11:10:30;22.33;;;12.10;;
25950;SDS011;13748;52.240;6.002;2022-12-18T11:15:58;18.67;;;11.13;;
25950;SDS011;13748;52.240;6.002;2022-12-18T11:18:27;20.73;;;11.93;;
25950;SDS011;13748;52.240;6.002;2022-12-18T11:20:57;18.73;;;10.87;;
25950;SDS011;13748;52.240;6.002;2022-12-18T11:23:36;19.07;;;11.30;;
25950;SDS011;13748;52.240;6.002;2022-12-18T11:26:10;19.50;;;11.20;;
25950;SDS011;13748;52.240;6.002;2022-12-18T11:28:37;20.93;;;11.67;;
25950;SDS011;13748;52.240;6.002;2022-12-18T11:36:55;18.37;;;11.47;;
25950;SDS011;13748;52.240;6.002;2022-12-18T11:42:15;17.57;;;11.23;;
25950;SDS011;13748;52.240;6.002;2022-12-18T11:50:31;19.10;;;10.30;;
25950;SDS011;13748;52.240;6.002;2022-12-18T11:53:11;19.40;;;11.40;;
25950;SDS011;13748;52.240;6.002;2022-12-18T11:55:43;20.47;;;10.67;;
25950;SDS011;13748;52.240;6.002;2022-12-18T12:09:37;15.50;;;10.33;;
25950;SDS011;13748;52.240;6.002;2022-12-18T12:18:22;17.23;;;9.90;;
25950;SDS011;13748;52.240;6.002;2022-12-18T12:21:06;19.40;;;9.97;;
25950;SDS011;13748;52.240;6.002;2022-12-18T12:23:52;16.83;;;10.77;;
25950;SDS011;13748;52.240;6.002;2022-12-18T12:29:18;17.17;;;10.73;;
25950;SDS011;13748;52.240;6.002;2022-12-18T12:34:26;19.03;;;10.83;;
25950;SDS011;13748;52.240;6.002;2022-12-18T12:39:48;21.80;;;10.87;;
25950;SDS011;13748;52.240;6.002;2022-12-18T12:45:40;17.40;;;9.80;;
25950;SDS011;13748;52.240;6.002;2022-12-18T12:48:23;18.87;;;10.57;;
25950;SDS011;13748;52.240;6.002;2022-12-18T12:51:00;18.60;;;11.03;;
25950;SDS011;13748;52.240;6.002;2022-12-18T12:53:34;19.30;;;10.13;;
25950;SDS011;13748;52.240;6.002;2022-12-18T12:56:04;19.47;;;10.07;;
25950;SDS011;13748;52.240;6.002;2022-12-18T12:58:46;20.93;;;11.07;;
25950;SDS011;13748;52.240;6.002;2022-12-18T13:01:41;18.43;;;9.73;;
25950;SDS011;13748;52.240;6.002;2022-12-18T13:09:32;18.17;;;10.03;;
25950;SDS011;13748;52.240;6.002;2022-12-18T13:12:04;20.50;;;11.57;;
25950;SDS011;13748;52.240;6.002;2022-12-18T13:15:13;19.10;;;10.90;;
25950;SDS011;13748;52.240;6.002;2022-12-18T13:17:48;18.03;;;10.47;;
25950;SDS011;13748;52.240;6.002;2022-12-18T13:20:19;20.43;;;10.70;;
25950;SDS011;13748;52.240;6.002;2022-12-18T13:22:46;17.63;;;11.00;;
25950;SDS011;13748;52.240;6.002;2022-12-18T13:25:32;18.87;;;10.80;;
25950;SDS011;13748;52.240;6.002;2022-12-18T13:28:02;22.00;;;10.53;;
25950;SDS011;13748;52.240;6.002;2022-12-18T13:35:42;19.20;;;11.53;;
25950;SDS011;13748;52.240;6.002;2022-12-18T13:38:36;20.07;;;11.07;;
25950;SDS011;13748;52.240;6.002;2022-12-18T13:46:27;17.47;;;10.40;;
25950;SDS011;13748;52.240;6.002;2022-12-18T13:48:56;18.57;;;10.27;;
25950;SDS011;13748;52.240;6.002;2022-12-18T13:51:26;18.70;;;10.83;;
25950;SDS011;13748;52.240;6.002;2022-12-18T13:54:01;17.23;;;10.73;;
25950;SDS011;13748;52.240;6.002;2022-12-18T13:56:42;17.30;;;10.70;;
25950;SDS011;13748;52.240;6.002;2022-12-18T13:59:13;17.57;;;11.30;;
25950;SDS011;13748;52.240;6.002;2022-12-18T14:01:43;19.60;;;11.53;;
25950;SDS011;13748;52.240;6.002;2022-12-18T14:04:16;20.50;;;11.63;;
25950;SDS011;13748;52.240;6.002;2022-12-18T14:06:46;18.70;;;11.00;;
25950;SDS011;13748;52.240;6.002;2022-12-18T14:09:17;18.50;;;11.10;;
25950;SDS011;13748;52.240;6.002;2022-12-18T14:11:52;19.17;;;11.17;;
25950;SDS011;13748;52.240;6.002;2022-12-18T14:14:42;16.83;;;11.00;;
25950;SDS011;13748;52.240;6.002;2022-12-18T14:17:16;23.57;;;12.03;;
25950;SDS011;13748;52.240;6.002;2022-12-18T14:19:47;18.00;;;11.07;;
25950;SDS011;13748;52.240;6.002;2022-12-18T14:22:17;21.43;;;11.63;;
25950;SDS011;13748;52.240;6.002;2022-12-18T14:27:46;16.80;;;10.60;;
25950;SDS011;13748;52.240;6.002;2022-12-18T14:33:00;18.87;;;11.17;;
25950;SDS011;13748;52.240;6.002;2022-12-18T14:35:26;18.00;;;10.37;;
25950;SDS011;13748;52.240;6.002;2022-12-18T14:37:53;15.97;;;10.70;;
25950;SDS011;13748;52.240;6.002;2022-12-18T14:40:34;20.50;;;10.93;;
25950;SDS011;13748;52.240;6.002;2022-12-18T14:43:02;17.73;;;10.47;;
25950;SDS011;13748;52.240;6.002;2022-12-18T14:45:36;20.40;;;11.37;;
25950;SDS011;13748;52.240;6.002;2022-12-18T14:48:15;18.70;;;10.47;;
25950;SDS011;13748;52.240;6.002;2022-12-18T14:51:14;21.83;;;12.13;;
25950;SDS011;13748;52.240;6.002;2022-12-18T14:53:56;18.87;;;12.10;;
25950;SDS011;13748;52.240;6.002;2022-12-18T14:56:30;20.57;;;11.23;;
25950;SDS011;13748;52.240;6.002;2022-12-18T14:59:03;18.33;;;10.97;;
25950;SDS011;13748;52.240;6.002;2022-12-18T15:07:20;19.80;;;11.47;;
25950;SDS011;13748;52.240;6.002;2022-12-18T15:12:37;21.70;;;11.67;;
25950;SDS011;13748;52.240;6.002;2022-12-18T15:26:04;20.47;;;11.87;;
25950;SDS011;13748;52.240;6.002;2022-12-18T15:28:51;21.20;;;12.73;;
25950;SDS011;13748;52.240;6.002;2022-12-18T15:31:23;22.63;;;12.33;;
25950;SDS011;13748;52.240;6.002;2022-12-18T15:36:22;18.77;;;12.00;;
25950;SDS011;13748;52.240;6.002;2022-12-18T15:38:53;20.53;;;11.60;;
25950;SDS011;13748;52.240;6.002;2022-12-18T15:41:31;18.07;;;10.57;;
25950;SDS011;13748;52.240;6.002;2022-12-18T15:44:01;20.97;;;11.97;;
25950;SDS011;13748;52.240;6.002;2022-12-18T15:46:29;18.57;;;11.27;;
25950;SDS011;13748;52.240;6.002;2022-12-18T15:48:57;21.08;;;13.55;;
25950;SDS011;13748;52.240;6.002;2022-12-18T15:51:28;18.67;;;11.80;;
25950;SDS011;13748;52.240;6.002;2022-12-18T15:53:58;25.60;;;13.37;;
25950;SDS011;13748;52.240;6.002;2022-12-18T15:56:26;19.87;;;12.47;;
25950;SDS011;13748;52.240;6.002;2022-12-18T15:59:13;22.53;;;13.40;;
25950;SDS011;13748;52.240;6.002;2022-12-18T16:01:41;23.60;;;12.53;;
25950;SDS011;13748;52.240;6.002;2022-12-18T16:04:10;20.67;;;12.47;;
25950;SDS011;13748;52.240;6.002;2022-12-18T16:06:39;22.73;;;12.20;;
25950;SDS011;13748;52.240;6.002;2022-12-18T16:09:26;21.10;;;12.07;;
25950;SDS011;13748;52.240;6.002;2022-12-18T16:11:52;18.87;;;12.17;;
25950;SDS011;13748;52.240;6.002;2022-12-18T16:14:20;23.03;;;12.27;;
25950;SDS011;13748;52.240;6.002;2022-12-18T16:16:59;20.50;;;12.17;;
25950;SDS011;13748;52.240;6.002;2022-12-18T16:19:28;21.83;;;12.67;;
25950;SDS011;13748;52.240;6.002;2022-12-18T16:21:56;22.37;;;14.00;;
25950;SDS011;13748;52.240;6.002;2022-12-18T16:24:25;21.83;;;12.47;;
25950;SDS011;13748;52.240;6.002;2022-12-18T16:26:55;22.97;;;14.37;;
25950;SDS011;13748;52.240;6.002;2022-12-18T16:29:26;21.73;;;13.90;;
25950;SDS011;13748;52.240;6.002;2022-12-18T16:31:57;20.47;;;13.57;;
25950;SDS011;13748;52.240;6.002;2022-12-18T16:34:27;24.17;;;13.90;;
25950;SDS011;13748;52.240;6.002;2022-12-18T16:37:04;22.97;;;14.57;;
25950;SDS011;13748;52.240;6.002;2022-12-18T16:39:35;25.90;;;13.50;;
25950;SDS011;13748;52.240;6.002;2022-12-18T16:42:03;23.97;;;14.20;;
25950;SDS011;13748;52.240;6.002;2022-12-18T16:44:40;23.23;;;14.10;;
25950;SDS011;13748;52.240;6.002;2022-12-18T16:47:08;26.63;;;14.60;;
25950;SDS011;13748;52.240;6.002;2022-12-18T16:49:38;23.80;;;14.07;;